sensor_id;sensor_type;location;lat;lon;timestamp;P1;durP1;ratioP1;P2;durP2;ratioP2
27802;SDS011;15182;48.174;11.562;2024-01-07T00:02:22;11.23;;;10.13;;
27802;SDS011;15182;48.174;11.562;2024-01-07T00:04:49;11.03;;;9.73;;
27802;SDS011;15182;48.174;11.562;2024-01-07T00:07:19;10.73;;;9.77;;
27802;SDS011;15182;48.174;11.562;2024-01-07T00:09:47;9.73;;;8.83;;
27802;SDS011;15182;48.174;11.562;2024-01-07T00:12:15;10.30;;;9.40;;
27802;SDS011;15182;48.174;11.562;2024-01-07T00:14:42;10.10;;;9.30;;
27802;SDS011;15182;48.174;11.562;2024-01-07T00:17:10;11.03;;;9.50;;
27802;SDS011;15182;48.174;11.562;2024-01-07T00:19:38;10.17;;;9.23;;
27802;SDS011;15182;48.174;11.562;2024-01-07T00:22:07;9.47;;;8.73;;
27802;SDS011;15182;48.174;11.562;2024-01-07T00:24:36;10.23;;;9.23;;
27802;SDS011;15182;48.174;11.562;2024-01-07T00:27:04;10.37;;;9.37;;
27802;SDS011;15182;48.174;11.562;2024-01-07T00:29:34;9.10;;;8.20;;
27802;SDS011;15182;48.174;11.562;2024-01-07T00:32:02;10.43;;;9.53;;
27802;SDS011;15182;48.174;11.562;2024-01-07T00:34:30;10.70;;;9.70;;
27802;SDS011;15182;48.174;11.562;2024-01-07T00:36:58;11.00;;;10.00;;
27802;SDS011;15182;48.174;11.562;2024-01-07T00:39:25;10.03;;;8.87;;
27802;SDS011;15182;48.174;11.562;2024-01-07T00:41:55;10.10;;;9.10;;
27802;SDS011;15182;48.174;11.562;2024-01-07T00:44:23;9.17;;;8.43;;
27802;SDS011;15182;48.174;11.562;2024-01-07T00:46:50;9.77;;;8.97;;
27802;SDS011;15182;48.174;11.562;2024-01-07T00:49:18;9.77;;;8.97;;
27802;SDS011;15182;48.174;11.562;2024-01-07T00:51:46;10.80;;;9.80;;
27802;SDS011;15182;48.174;11.562;2024-01-07T00:54:14;10.03;;;9.13;;
27802;SDS011;15182;48.174;11.562;2024-01-07T00:56:42;10.50;;;9.50;;
27802;SDS011;15182;48.174;11.562;2024-01-07T00:59:11;9.47;;;8.67;;
27802;SDS011;15182;48.174;11.562;2024-01-07T01:01:39;10.37;;;9.37;;
27802;SDS011;15182;48.174;11.562;2024-01-07T01:04:06;10.60;;;9.63;;
27802;SDS011;15182;48.174;11.562;2024-01-07T01:06:35;10.10;;;9.20;;
27802;SDS011;15182;48.174;11.562;2024-01-07T01:09:02;10.13;;;9.33;;
27802;SDS011;15182;48.174;11.562;2024-01-07T01:11:30;9.00;;;8.10;;
27802;SDS011;15182;48.174;11.562;2024-01-07T01:13:58;9.30;;;8.50;;
27802;SDS011;15182;48.174;11.562;2024-01-07T01:16:27;9.50;;;8.70;;
27802;SDS011;15182;48.174;11.562;2024-01-07T01:18:55;9.67;;;8.77;;
27802;SDS011;15182;48.174;11.562;2024-01-07T01:21:23;10.27;;;9.37;;
27802;SDS011;15182;48.174;11.562;2024-01-07T01:23:51;9.30;;;8.60;;
27802;SDS011;15182;48.174;11.562;2024-01-07T01:26:19;8.93;;;8.23;;
27802;SDS011;15182;48.174;11.562;2024-01-07T01:28:46;11.33;;;10.10;;
27802;SDS011;15182;48.174;11.562;2024-01-07T01:31:14;10.07;;;9.07;;
27802;SDS011;15182;48.174;11.562;2024-01-07T01:33:43;10.73;;;9.73;;
27802;SDS011;15182;48.174;11.562;2024-01-07T01:36:11;9.97;;;9.03;;
27802;SDS011;15182;48.174;11.562;2024-01-07T01:38:39;9.60;;;8.70;;
27802;SDS011;15182;48.174;11.562;2024-01-07T01:41:07;10.47;;;9.57;;
27802;SDS011;15182;48.174;11.562;2024-01-07T01:43:35;9.63;;;8.80;;
27802;SDS011;15182;48.174;11.562;2024-01-07T01:46:03;9.77;;;8.87;;
27802;SDS011;15182;48.174;11.562;2024-01-07T01:48:31;9.40;;;8.60;;
27802;SDS011;15182;48.174;11.562;2024-01-07T01:51:00;9.30;;;8.60;;
27802;SDS011;15182;48.174;11.562;2024-01-07T01:53:29;9.57;;;8.23;;
27802;SDS011;15182;48.174;11.562;2024-01-07T01:55:58;9.43;;;8.63;;
27802;SDS011;15182;48.174;11.562;2024-01-07T01:58:29;9.83;;;9.03;;
27802;SDS011;15182;48.174;11.562;2024-01-07T02:00:57;9.57;;;8.80;;
27802;SDS011;15182;48.174;11.562;2024-01-07T02:03:25;9.27;;;8.57;;
27802;SDS011;15182;48.174;11.562;2024-01-07T02:05:53;9.50;;;8.80;;
27802;SDS011;15182;48.174;11.562;2024-01-07T02:08:25;9.37;;;8.57;;
27802;SDS011;15182;48.174;11.562;2024-01-07T02:10:53;9.67;;;8.87;;
27802;SDS011;15182;48.174;11.562;2024-01-07T02:13:21;8.77;;;8.20;;
27802;SDS011;15182;48.174;11.562;2024-01-07T02:15:49;9.53;;;8.83;;
27802;SDS011;15182;48.174;11.562;2024-01-07T02:18:17;7.70;;;7.13;;
27802;SDS011;15182;48.174;11.562;2024-01-07T02:20:45;8.43;;;7.83;;
27802;SDS011;15182;48.174;11.562;2024-01-07T02:23:12;8.90;;;8.20;;
27802;SDS011;15182;48.174;11.562;2024-01-07T02:25:41;8.43;;;7.83;;
27802;SDS011;15182;48.174;11.562;2024-01-07T02:28:09;8.57;;;8.07;;
27802;SDS011;15182;48.174;11.562;2024-01-07T02:30:37;8.57;;;7.97;;
27802;SDS011;15182;48.174;11.562;2024-01-07T02:33:05;8.07;;;7.53;;
27802;SDS011;15182;48.174;11.562;2024-01-07T02:35:33;8.87;;;8.27;;
27802;SDS011;15182;48.174;11.562;2024-01-07T02:38:01;8.80;;;8.17;;
27802;SDS011;15182;48.174;11.562;2024-01-07T02:40:28;8.73;;;8.03;;
27802;SDS011;15182;48.174;11.562;2024-01-07T02:42:58;7.80;;;7.30;;
27802;SDS011;15182;48.174;11.562;2024-01-07T02:45:26;8.23;;;7.63;;
27802;SDS011;15182;48.174;11.562;2024-01-07T02:47:54;9.27;;;8.57;;
27802;SDS011;15182;48.174;11.562;2024-01-07T02:50:22;8.70;;;8.10;;
27802;SDS011;15182;48.174;11.562;2024-01-07T02:52:49;8.23;;;7.73;;
27802;SDS011;15182;48.174;11.562;2024-01-07T02:55:17;8.63;;;8.13;;
27802;SDS011;15182;48.174;11.562;2024-01-07T02:57:45;8.37;;;7.87;;
27802;SDS011;15182;48.174;11.562;2024-01-07T03:00:15;8.37;;;7.87;;
27802;SDS011;15182;48.174;11.562;2024-01-07T03:02:44;8.50;;;7.90;;
27802;SDS011;15182;48.174;11.562;2024-01-07T03:05:12;7.97;;;7.47;;
27802;SDS011;15182;48.174;11.562;2024-01-07T03:07:40;8.70;;;8.10;;
27802;SDS011;15182;48.174;11.562;2024-01-07T03:10:08;8.80;;;8.10;;
27802;SDS011;15182;48.174;11.562;2024-01-07T03:12:36;8.83;;;8.17;;
27802;SDS011;15182;48.174;11.562;2024-01-07T03:15:04;8.77;;;8.07;;
27802;SDS011;15182;48.174;11.562;2024-01-07T03:17:36;8.13;;;7.60;;
27802;SDS011;15182;48.174;11.562;2024-01-07T03:20:04;8.53;;;7.90;;
27802;SDS011;15182;48.174;11.562;2024-01-07T03:22:33;8.20;;;7.63;;
27802;SDS011;15182;48.174;11.562;2024-01-07T03:25:01;8.13;;;7.53;;
27802;SDS011;15182;48.174;11.562;2024-01-07T03:27:30;8.40;;;7.83;;
27802;SDS011;15182;48.174;11.562;2024-01-07T03:29:58;9.00;;;8.20;;
27802;SDS011;15182;48.174;11.562;2024-01-07T03:32:26;8.50;;;7.87;;
27802;SDS011;15182;48.174;11.562;2024-01-07T03:34:55;8.63;;;8.03;;
27802;SDS011;15182;48.174;11.562;2024-01-07T03:37:23;8.07;;;7.50;;
27802;SDS011;15182;48.174;11.562;2024-01-07T03:39:51;8.60;;;8.00;;
27802;SDS011;15182;48.174;11.562;2024-01-07T03:42:19;8.70;;;8.00;;
27802;SDS011;15182;48.174;11.562;2024-01-07T03:44:46;8.40;;;7.80;;
27802;SDS011;15182;48.174;11.562;2024-01-07T03:47:14;8.67;;;8.07;;
27802;SDS011;15182;48.174;11.562;2024-01-07T03:49:42;8.53;;;7.93;;
27802;SDS011;15182;48.174;11.562;2024-01-07T03:52:11;8.43;;;7.73;;
27802;SDS011;15182;48.174;11.562;2024-01-07T03:54:39;7.70;;;7.30;;
27802;SDS011;15182;48.174;11.562;2024-01-07T03:57:07;9.00;;;8.37;;
27802;SDS011;15182;48.174;11.562;2024-01-07T03:59:35;8.13;;;7.50;;
27802;SDS011;15182;48.174;11.562;2024-01-07T04:02:03;8.67;;;7.97;;
27802;SDS011;15182;48.174;11.562;2024-01-07T04:04:30;9.10;;;8.43;;
27802;SDS011;15182;48.174;11.562;2024-01-07T04:06:58;8.47;;;7.97;;
27802;SDS011;15182;48.174;11.562;2024-01-07T04:09:27;9.43;;;8.73;;
27802;SDS011;15182;48.174;11.562;2024-01-07T04:11:55;9.47;;;8.67;;
27802;SDS011;15182;48.174;11.562;2024-01-07T04:14:23;8.60;;;8.00;;
27802;SDS011;15182;48.174;11.562;2024-01-07T04:16:53;8.33;;;7.73;;
27802;SDS011;15182;48.174;11.562;2024-01-07T04:19:21;8.67;;;8.07;;
27802;SDS011;15182;48.174;11.562;2024-01-07T04:21:49;8.53;;;7.97;;
27802;SDS011;15182;48.174;11.562;2024-01-07T04:24:16;8.50;;;7.87;;
27802;SDS011;15182;48.174;11.562;2024-01-07T04:26:46;8.27;;;7.70;;
27802;SDS011;15182;48.174;11.562;2024-01-07T04:29:14;9.33;;;8.53;;
27802;SDS011;15182;48.174;11.562;2024-01-07T04:31:41;8.07;;;7.47;;
27802;SDS011;15182;48.174;11.562;2024-01-07T04:34:09;7.90;;;7.50;;
27802;SDS011;15182;48.174;11.562;2024-01-07T04:36:37;8.73;;;8.13;;
27802;SDS011;15182;48.174;11.562;2024-01-07T04:39:05;7.50;;;7.10;;
27802;SDS011;15182;48.174;11.562;2024-01-07T04:41:34;9.13;;;8.33;;
27802;SDS011;15182;48.174;11.562;2024-01-07T04:44:03;8.23;;;7.73;;
27802;SDS011;15182;48.174;11.562;2024-01-07T04:46:33;8.20;;;7.60;;
27802;SDS011;15182;48.174;11.562;2024-01-07T04:49:01;8.60;;;7.90;;
27802;SDS011;15182;48.174;11.562;2024-01-07T04:51:29;8.23;;;7.63;;
27802;SDS011;15182;48.174;11.562;2024-01-07T04:53:57;7.20;;;6.90;;
27802;SDS011;15182;48.174;11.562;2024-01-07T04:56:25;7.77;;;7.27;;
27802;SDS011;15182;48.174;11.562;2024-01-07T04:58:53;7.40;;;6.90;;
27802;SDS011;15182;48.174;11.562;2024-01-07T05:01:22;7.63;;;7.23;;
27802;SDS011;15182;48.174;11.562;2024-01-07T05:03:50;8.13;;;7.43;;
27802;SDS011;15182;48.174;11.562;2024-01-07T05:06:17;7.63;;;7.20;;
27802;SDS011;15182;48.174;11.562;2024-01-07T05:08:45;8.17;;;7.53;;
27802;SDS011;15182;48.174;11.562;2024-01-07T05:11:13;7.07;;;6.67;;
27802;SDS011;15182;48.174;11.562;2024-01-07T05:13:43;7.07;;;6.73;;
27802;SDS011;15182;48.174;11.562;2024-01-07T05:16:17;7.37;;;6.97;;
27802;SDS011;15182;48.174;11.562;2024-01-07T05:18:47;7.77;;;7.27;;
27802;SDS011;15182;48.174;11.562;2024-01-07T05:21:15;7.73;;;7.20;;
27802;SDS011;15182;48.174;11.562;2024-01-07T05:23:45;6.97;;;6.50;;
27802;SDS011;15182;48.174;11.562;2024-01-07T05:26:13;8.43;;;7.83;;
27802;SDS011;15182;48.174;11.562;2024-01-07T05:28:40;7.67;;;7.20;;
27802;SDS011;15182;48.174;11.562;2024-01-07T05:31:13;8.10;;;7.50;;
27802;SDS011;15182;48.174;11.562;2024-01-07T05:33:42;7.00;;;6.60;;
27802;SDS011;15182;48.174;11.562;2024-01-07T05:36:11;8.70;;;8.00;;
27802;SDS011;15182;48.174;11.562;2024-01-07T05:38:41;7.37;;;6.97;;
27802;SDS011;15182;48.174;11.562;2024-01-07T05:41:09;7.80;;;7.40;;
27802;SDS011;15182;48.174;11.562;2024-01-07T05:43:36;7.23;;;6.83;;
27802;SDS011;15182;48.174;11.562;2024-01-07T05:46:04;8.27;;;7.70;;
27802;SDS011;15182;48.174;11.562;2024-01-07T05:48:40;8.80;;;8.10;;
27802;SDS011;15182;48.174;11.562;2024-01-07T05:51:11;8.47;;;7.80;;
27802;SDS011;15182;48.174;11.562;2024-01-07T05:53:39;8.33;;;7.73;;
27802;SDS011;15182;48.174;11.562;2024-01-07T05:56:08;8.37;;;7.67;;
27802;SDS011;15182;48.174;11.562;2024-01-07T05:58:36;7.90;;;7.30;;
27802;SDS011;15182;48.174;11.562;2024-01-07T06:01:04;7.77;;;7.17;;
27802;SDS011;15182;48.174;11.562;2024-01-07T06:03:34;7.40;;;6.97;;
27802;SDS011;15182;48.174;11.562;2024-01-07T06:06:02;8.23;;;7.63;;
27802;SDS011;15182;48.174;11.562;2024-01-07T06:08:32;7.80;;;7.23;;
27802;SDS011;15182;48.174;11.562;2024-01-07T06:10:59;7.83;;;7.23;;
27802;SDS011;15182;48.174;11.562;2024-01-07T06:13:27;7.17;;;6.77;;
27802;SDS011;15182;48.174;11.562;2024-01-07T06:15:55;7.37;;;6.87;;
27802;SDS011;15182;48.174;11.562;2024-01-07T06:18:23;7.43;;;7.03;;
27802;SDS011;15182;48.174;11.562;2024-01-07T06:20:51;7.33;;;6.83;;
27802;SDS011;15182;48.174;11.562;2024-01-07T06:23:18;7.43;;;6.93;;
27802;SDS011;15182;48.174;11.562;2024-01-07T06:25:48;7.23;;;6.73;;
27802;SDS011;15182;48.174;11.562;2024-01-07T06:28:15;7.40;;;7.00;;
27802;SDS011;15182;48.174;11.562;2024-01-07T06:30:43;6.90;;;6.50;;
27802;SDS011;15182;48.174;11.562;2024-01-07T06:33:11;7.63;;;7.17;;
27802;SDS011;15182;48.174;11.562;2024-01-07T06:35:39;7.60;;;7.10;;
27802;SDS011;15182;48.174;11.562;2024-01-07T06:38:07;6.53;;;6.13;;
27802;SDS011;15182;48.174;11.562;2024-01-07T06:40:35;7.67;;;7.00;;
27802;SDS011;15182;48.174;11.562;2024-01-07T06:43:05;7.17;;;6.77;;
27802;SDS011;15182;48.174;11.562;2024-01-07T06:45:33;6.93;;;6.50;;
27802;SDS011;15182;48.174;11.562;2024-01-07T06:48:01;6.97;;;6.57;;
27802;SDS011;15182;48.174;11.562;2024-01-07T06:50:28;6.90;;;6.50;;
27802;SDS011;15182;48.174;11.562;2024-01-07T06:52:56;7.07;;;6.60;;
27802;SDS011;15182;48.174;11.562;2024-01-07T06:55:24;7.27;;;6.70;;
27802;SDS011;15182;48.174;11.562;2024-01-07T06:57:52;7.47;;;6.87;;
27802;SDS011;15182;48.174;11.562;2024-01-07T07:00:21;6.50;;;6.13;;
27802;SDS011;15182;48.174;11.562;2024-01-07T07:02:50;7.23;;;6.73;;
27802;SDS011;15182;48.174;11.562;2024-01-07T07:05:18;7.00;;;6.60;;
27802;SDS011;15182;48.174;11.562;2024-01-07T07:07:45;7.27;;;6.77;;
27802;SDS011;15182;48.174;11.562;2024-01-07T07:10:13;6.73;;;6.30;;
27802;SDS011;15182;48.174;11.562;2024-01-07T07:12:41;6.93;;;6.53;;
27802;SDS011;15182;48.174;11.562;2024-01-07T07:15:09;7.60;;;7.10;;
27802;SDS011;15182;48.174;11.562;2024-01-07T07:17:38;7.87;;;7.37;;
27802;SDS011;15182;48.174;11.562;2024-01-07T07:20:07;7.27;;;6.77;;
27802;SDS011;15182;48.174;11.562;2024-01-07T07:22:35;7.90;;;7.37;;
27802;SDS011;15182;48.174;11.562;2024-01-07T07:25:03;7.30;;;6.80;;
27802;SDS011;15182;48.174;11.562;2024-01-07T07:27:33;7.30;;;6.70;;
27802;SDS011;15182;48.174;11.562;2024-01-07T07:30:00;7.17;;;6.70;;
27802;SDS011;15182;48.174;11.562;2024-01-07T07:32:28;8.03;;;7.53;;
27802;SDS011;15182;48.174;11.562;2024-01-07T07:34:57;8.27;;;7.67;;
27802;SDS011;15182;48.174;11.562;2024-01-07T07:37:26;8.57;;;7.77;;
27802;SDS011;15182;48.174;11.562;2024-01-07T07:39:54;7.77;;;7.27;;
27802;SDS011;15182;48.174;11.562;2024-01-07T07:42:22;7.93;;;7.23;;
27802;SDS011;15182;48.174;11.562;2024-01-07T07:44:50;7.50;;;7.00;;
27802;SDS011;15182;48.174;11.562;2024-01-07T07:47:18;7.93;;;7.33;;
27802;SDS011;15182;48.174;11.562;2024-01-07T07:49:46;7.20;;;6.67;;
27802;SDS011;15182;48.174;11.562;2024-01-07T07:52:17;8.27;;;7.57;;
27802;SDS011;15182;48.174;11.562;2024-01-07T07:54:47;7.77;;;7.07;;
27802;SDS011;15182;48.174;11.562;2024-01-07T07:57:15;8.47;;;7.70;;
27802;SDS011;15182;48.174;11.562;2024-01-07T07:59:45;8.37;;;7.57;;
27802;SDS011;15182;48.174;11.562;2024-01-07T08:02:13;9.03;;;8.13;;
27802;SDS011;15182;48.174;11.562;2024-01-07T08:04:41;8.07;;;7.37;;
27802;SDS011;15182;48.174;11.562;2024-01-07T08:07:09;7.77;;;7.27;;
27802;SDS011;15182;48.174;11.562;2024-01-07T08:09:38;8.13;;;7.53;;
27802;SDS011;15182;48.174;11.562;2024-01-07T08:12:06;8.13;;;7.43;;
27802;SDS011;15182;48.174;11.562;2024-01-07T08:14:34;8.53;;;7.83;;
27802;SDS011;15182;48.174;11.562;2024-01-07T08:17:02;7.17;;;6.77;;
27802;SDS011;15182;48.174;11.562;2024-01-07T08:19:30;9.20;;;7.03;;
27802;SDS011;15182;48.174;11.562;2024-01-07T08:21:58;7.60;;;7.00;;
27802;SDS011;15182;48.174;11.562;2024-01-07T08:24:26;8.03;;;7.37;;
27802;SDS011;15182;48.174;11.562;2024-01-07T08:26:55;8.40;;;7.57;;
27802;SDS011;15182;48.174;11.562;2024-01-07T08:29:23;8.67;;;7.97;;
27802;SDS011;15182;48.174;11.562;2024-01-07T08:31:51;8.20;;;7.57;;
27802;SDS011;15182;48.174;11.562;2024-01-07T08:34:19;8.60;;;7.80;;
27802;SDS011;15182;48.174;11.562;2024-01-07T08:36:47;9.00;;;8.17;;
27802;SDS011;15182;48.174;11.562;2024-01-07T08:39:15;8.17;;;7.57;;
27802;SDS011;15182;48.174;11.562;2024-01-07T08:41:43;8.20;;;7.60;;
27802;SDS011;15182;48.174;11.562;2024-01-07T08:44:12;8.40;;;7.67;;
27802;SDS011;15182;48.174;11.562;2024-01-07T08:46:40;9.67;;;8.23;;
27802;SDS011;15182;48.174;11.562;2024-01-07T08:49:08;8.47;;;7.67;;
27802;SDS011;15182;48.174;11.562;2024-01-07T08:51:36;8.97;;;8.13;;
27802;SDS011;15182;48.174;11.562;2024-01-07T08:54:04;8.77;;;7.80;;
27802;SDS011;15182;48.174;11.562;2024-01-07T08:56:32;9.50;;;8.60;;
27802;SDS011;15182;48.174;11.562;2024-01-07T08:58:59;9.07;;;8.37;;
27802;SDS011;15182;48.174;11.562;2024-01-07T09:01:29;8.80;;;8.03;;
27802;SDS011;15182;48.174;11.562;2024-01-07T09:03:57;9.07;;;8.17;;
27802;SDS011;15182;48.174;11.562;2024-01-07T09:06:25;9.30;;;8.30;;
27802;SDS011;15182;48.174;11.562;2024-01-07T09:08:52;9.47;;;8.47;;
27802;SDS011;15182;48.174;11.562;2024-01-07T09:11:20;9.07;;;8.33;;
27802;SDS011;15182;48.174;11.562;2024-01-07T09:13:49;9.60;;;8.80;;
27802;SDS011;15182;48.174;11.562;2024-01-07T09:16:17;9.47;;;8.57;;
27802;SDS011;15182;48.174;11.562;2024-01-07T09:18:47;9.87;;;8.97;;
27802;SDS011;15182;48.174;11.562;2024-01-07T09:21:14;9.23;;;8.40;;
27802;SDS011;15182;48.174;11.562;2024-01-07T09:23:43;9.43;;;8.53;;
27802;SDS011;15182;48.174;11.562;2024-01-07T09:26:11;9.37;;;8.30;;
27802;SDS011;15182;48.174;11.562;2024-01-07T09:28:39;9.20;;;8.30;;
27802;SDS011;15182;48.174;11.562;2024-01-07T09:31:08;9.53;;;8.60;;
27802;SDS011;15182;48.174;11.562;2024-01-07T09:33:36;10.00;;;8.70;;
27802;SDS011;15182;48.174;11.562;2024-01-07T09:36:06;10.47;;;9.47;;
27802;SDS011;15182;48.174;11.562;2024-01-07T09:38:34;12.53;;;8.70;;
27802;SDS011;15182;48.174;11.562;2024-01-07T09:41:02;8.67;;;7.93;;
27802;SDS011;15182;48.174;11.562;2024-01-07T09:43:30;10.60;;;9.03;;
27802;SDS011;15182;48.174;11.562;2024-01-07T09:45:58;11.70;;;9.50;;
27802;SDS011;15182;48.174;11.562;2024-01-07T09:48:27;10.50;;;9.43;;
27802;SDS011;15182;48.174;11.562;2024-01-07T09:50:55;10.97;;;9.43;;
27802;SDS011;15182;48.174;11.562;2024-01-07T09:53:29;10.13;;;9.03;;
27802;SDS011;15182;48.174;11.562;2024-01-07T09:56:01;10.80;;;9.70;;
27802;SDS011;15182;48.174;11.562;2024-01-07T09:58:39;11.47;;;9.47;;
27802;SDS011;15182;48.174;11.562;2024-01-07T10:01:09;13.73;;;9.20;;
27802;SDS011;15182;48.174;11.562;2024-01-07T10:03:37;11.00;;;9.50;;
27802;SDS011;15182;48.174;11.562;2024-01-07T10:06:05;9.80;;;8.70;;
27802;SDS011;15182;48.174;11.562;2024-01-07T10:08:34;10.07;;;9.23;;
27802;SDS011;15182;48.174;11.562;2024-01-07T10:11:02;10.87;;;9.77;;
27802;SDS011;15182;48.174;11.562;2024-01-07T10:13:30;9.67;;;8.77;;
27802;SDS011;15182;48.174;11.562;2024-01-07T10:15:59;10.13;;;9.00;;
27802;SDS011;15182;48.174;11.562;2024-01-07T10:18:27;9.70;;;8.70;;
27802;SDS011;15182;48.174;11.562;2024-01-07T10:20:58;10.20;;;9.10;;
27802;SDS011;15182;48.174;11.562;2024-01-07T10:23:30;9.50;;;8.60;;
27802;SDS011;15182;48.174;11.562;2024-01-07T10:25:59;12.00;;;8.83;;
27802;SDS011;15182;48.174;11.562;2024-01-07T10:28:31;9.77;;;8.47;;
27802;SDS011;15182;48.174;11.562;2024-01-07T10:30:59;9.27;;;8.37;;
27802;SDS011;15182;48.174;11.562;2024-01-07T10:33:30;12.73;;;8.90;;
27802;SDS011;15182;48.174;11.562;2024-01-07T10:36:01;13.77;;;9.00;;
27802;SDS011;15182;48.174;11.562;2024-01-07T10:38:32;11.47;;;9.17;;
27802;SDS011;15182;48.174;11.562;2024-01-07T10:41:02;11.20;;;8.77;;
27802;SDS011;15182;48.174;11.562;2024-01-07T10:43:35;11.20;;;9.90;;
27802;SDS011;15182;48.174;11.562;2024-01-07T10:46:06;10.17;;;9.17;;
27802;SDS011;15182;48.174;11.562;2024-01-07T10:48:41;10.00;;;8.57;;
27802;SDS011;15182;48.174;11.562;2024-01-07T10:51:22;9.90;;;8.80;;
27802;SDS011;15182;48.174;11.562;2024-01-07T10:53:52;10.33;;;8.57;;
27802;SDS011;15182;48.174;11.562;2024-01-07T10:56:23;11.10;;;9.63;;
27802;SDS011;15182;48.174;11.562;2024-01-07T10:58:55;11.07;;;9.03;;
27802;SDS011;15182;48.174;11.562;2024-01-07T11:01:24;12.07;;;8.53;;
27802;SDS011;15182;48.174;11.562;2024-01-07T11:03:55;10.73;;;9.10;;
27802;SDS011;15182;48.174;11.562;2024-01-07T11:06:31;10.13;;;8.87;;
27802;SDS011;15182;48.174;11.562;2024-01-07T11:09:11;8.90;;;8.10;;
27802;SDS011;15182;48.174;11.562;2024-01-07T11:11:47;8.33;;;7.63;;
27802;SDS011;15182;48.174;11.562;2024-01-07T11:14:34;9.47;;;8.33;;
27802;SDS011;15182;48.174;11.562;2024-01-07T11:17:03;8.70;;;7.90;;
27802;SDS011;15182;48.174;11.562;2024-01-07T11:19:32;8.13;;;7.33;;
27802;SDS011;15182;48.174;11.562;2024-01-07T11:24:54;8.17;;;7.50;;
27802;SDS011;15182;48.174;11.562;2024-01-07T11:27:24;8.70;;;7.83;;
27802;SDS011;15182;48.174;11.562;2024-01-07T11:29:57;8.70;;;8.03;;
27802;SDS011;15182;48.174;11.562;2024-01-07T11:32:30;8.50;;;7.80;;
27802;SDS011;15182;48.174;11.562;2024-01-07T11:35:00;8.60;;;7.80;;
27802;SDS011;15182;48.174;11.562;2024-01-07T11:37:30;8.33;;;7.73;;
27802;SDS011;15182;48.174;11.562;2024-01-07T11:39:57;8.13;;;7.53;;
27802;SDS011;15182;48.174;11.562;2024-01-07T11:42:27;8.97;;;8.07;;
27802;SDS011;15182;48.174;11.562;2024-01-07T11:44:55;8.20;;;7.50;;
27802;SDS011;15182;48.174;11.562;2024-01-07T11:47:23;8.90;;;8.13;;
27802;SDS011;15182;48.174;11.562;2024-01-07T11:49:53;8.30;;;7.50;;
27802;SDS011;15182;48.174;11.562;2024-01-07T11:52:21;9.07;;;8.17;;
27802;SDS011;15182;48.174;11.562;2024-01-07T11:54:49;8.93;;;8.10;;
27802;SDS011;15182;48.174;11.562;2024-01-07T11:57:17;9.77;;;8.43;;
27802;SDS011;15182;48.174;11.562;2024-01-07T11:59:46;8.50;;;7.73;;
27802;SDS011;15182;48.174;11.562;2024-01-07T12:02:14;8.37;;;7.67;;
27802;SDS011;15182;48.174;11.562;2024-01-07T12:04:43;9.37;;;8.63;;
27802;SDS011;15182;48.174;11.562;2024-01-07T12:07:11;8.23;;;7.53;;
27802;SDS011;15182;48.174;11.562;2024-01-07T12:09:40;8.87;;;8.03;;
27802;SDS011;15182;48.174;11.562;2024-01-07T12:12:08;8.13;;;7.50;;
27802;SDS011;15182;48.174;11.562;2024-01-07T12:14:36;8.37;;;7.77;;
27802;SDS011;15182;48.174;11.562;2024-01-07T12:17:05;8.57;;;7.93;;
27802;SDS011;15182;48.174;11.562;2024-01-07T12:19:36;9.37;;;8.40;;
27802;SDS011;15182;48.174;11.562;2024-01-07T12:22:05;9.20;;;8.30;;
27802;SDS011;15182;48.174;11.562;2024-01-07T12:24:33;8.87;;;8.10;;
27802;SDS011;15182;48.174;11.562;2024-01-07T12:27:03;7.60;;;7.10;;
27802;SDS011;15182;48.174;11.562;2024-01-07T12:29:32;8.50;;;7.90;;
27802;SDS011;15182;48.174;11.562;2024-01-07T12:32:00;7.20;;;6.80;;
27802;SDS011;15182;48.174;11.562;2024-01-07T12:34:30;8.70;;;8.00;;
27802;SDS011;15182;48.174;11.562;2024-01-07T12:36:58;8.83;;;7.93;;
27802;SDS011;15182;48.174;11.562;2024-01-07T12:39:27;8.90;;;8.20;;
27802;SDS011;15182;48.174;11.562;2024-01-07T12:41:55;8.10;;;7.50;;
27802;SDS011;15182;48.174;11.562;2024-01-07T12:44:26;8.40;;;7.80;;
27802;SDS011;15182;48.174;11.562;2024-01-07T12:46:55;8.70;;;7.97;;
27802;SDS011;15182;48.174;11.562;2024-01-07T12:49:23;9.43;;;8.53;;
27802;SDS011;15182;48.174;11.562;2024-01-07T12:51:52;9.27;;;8.53;;
27802;SDS011;15182;48.174;11.562;2024-01-07T12:54:20;9.13;;;8.30;;
27802;SDS011;15182;48.174;11.562;2024-01-07T12:56:50;9.03;;;8.30;;
27802;SDS011;15182;48.174;11.562;2024-01-07T12:59:18;8.63;;;7.93;;
27802;SDS011;15182;48.174;11.562;2024-01-07T13:01:46;9.33;;;8.50;;
27802;SDS011;15182;48.174;11.562;2024-01-07T13:04:16;9.07;;;8.27;;
27802;SDS011;15182;48.174;11.562;2024-01-07T13:06:45;9.43;;;8.43;;
27802;SDS011;15182;48.174;11.562;2024-01-07T13:09:14;9.10;;;8.20;;
27802;SDS011;15182;48.174;11.562;2024-01-07T13:11:42;8.60;;;8.00;;
27802;SDS011;15182;48.174;11.562;2024-01-07T13:14:10;9.23;;;8.33;;
27802;SDS011;15182;48.174;11.562;2024-01-07T13:16:38;8.37;;;7.77;;
27802;SDS011;15182;48.174;11.562;2024-01-07T13:19:06;9.10;;;8.30;;
27802;SDS011;15182;48.174;11.562;2024-01-07T13:21:36;8.70;;;7.90;;
27802;SDS011;15182;48.174;11.562;2024-01-07T13:24:05;10.20;;;8.77;;
27802;SDS011;15182;48.174;11.562;2024-01-07T13:26:34;9.20;;;8.33;;
27802;SDS011;15182;48.174;11.562;2024-01-07T13:29:02;9.00;;;8.20;;
27802;SDS011;15182;48.174;11.562;2024-01-07T13:31:30;9.07;;;8.27;;
27802;SDS011;15182;48.174;11.562;2024-01-07T13:33:58;8.57;;;7.83;;
27802;SDS011;15182;48.174;11.562;2024-01-07T13:36:26;9.20;;;8.40;;
27802;SDS011;15182;48.174;11.562;2024-01-07T13:38:54;8.50;;;7.87;;
27802;SDS011;15182;48.174;11.562;2024-01-07T13:41:22;8.70;;;8.03;;
27802;SDS011;15182;48.174;11.562;2024-01-07T13:43:55;8.13;;;7.53;;
27802;SDS011;15182;48.174;11.562;2024-01-07T13:46:24;9.73;;;8.83;;
27802;SDS011;15182;48.174;11.562;2024-01-07T13:48:52;8.77;;;8.13;;
27802;SDS011;15182;48.174;11.562;2024-01-07T13:51:19;8.60;;;7.90;;
27802;SDS011;15182;48.174;11.562;2024-01-07T13:53:47;9.23;;;8.50;;
27802;SDS011;15182;48.174;11.562;2024-01-07T13:56:15;9.53;;;8.67;;
27802;SDS011;15182;48.174;11.562;2024-01-07T13:58:43;9.30;;;8.50;;
27802;SDS011;15182;48.174;11.562;2024-01-07T14:01:14;9.10;;;8.40;;
27802;SDS011;15182;48.174;11.562;2024-01-07T14:03:42;8.93;;;8.23;;
27802;SDS011;15182;48.174;11.562;2024-01-07T14:06:09;8.80;;;8.23;;
27802;SDS011;15182;48.174;11.562;2024-01-07T14:08:38;8.70;;;7.97;;
27802;SDS011;15182;48.174;11.562;2024-01-07T14:11:05;9.23;;;8.40;;
27802;SDS011;15182;48.174;11.562;2024-01-07T14:13:34;10.17;;;9.10;;
27802;SDS011;15182;48.174;11.562;2024-01-07T14:16:02;12.17;;;9.37;;
27802;SDS011;15182;48.174;11.562;2024-01-07T14:18:33;9.93;;;8.40;;
27802;SDS011;15182;48.174;11.562;2024-01-07T14:21:01;9.13;;;8.33;;
27802;SDS011;15182;48.174;11.562;2024-01-07T14:23:30;9.47;;;8.57;;
27802;SDS011;15182;48.174;11.562;2024-01-07T14:25:59;9.53;;;8.53;;
27802;SDS011;15182;48.174;11.562;2024-01-07T14:28:27;9.30;;;8.50;;
27802;SDS011;15182;48.174;11.562;2024-01-07T14:30:55;9.10;;;8.30;;
27802;SDS011;15182;48.174;11.562;2024-01-07T14:33:23;9.67;;;8.87;;
27802;SDS011;15182;48.174;11.562;2024-01-07T14:35:53;9.00;;;8.30;;
27802;SDS011;15182;48.174;11.562;2024-01-07T14:38:20;9.43;;;8.63;;
27802;SDS011;15182;48.174;11.562;2024-01-07T14:40:48;9.70;;;8.70;;
27802;SDS011;15182;48.174;11.562;2024-01-07T14:43:17;10.43;;;9.30;;
27802;SDS011;15182;48.174;11.562;2024-01-07T14:45:45;8.83;;;7.93;;